createdAt,value
2022-11-17T06:54:09.874Z,99405.88
2022-11-17T06:56:36.924Z,99406.56
2022-11-17T06:59:03.979Z,99413.72
2022-11-17T07:01:30.881Z,99401.91
2022-11-17T07:03:57.807Z,99404.22
2022-11-17T07:06:24.872Z,99396.50
2022-11-17T07:08:51.787Z,99400.09
2022-11-17T07:11:18.764Z,99398.88
2022-11-17T07:13:45.913Z,99408.25
2022-11-17T07:16:21.740Z,99403.47
2022-11-17T07:18:50.490Z,99395.59
2022-11-17T07:21:18.132Z,99400.00
2022-11-17T07:23:45.945Z,99397.81
2022-11-17T07:26:14.330Z,99402.28
2022-11-17T07:28:41.396Z,99403.59
2022-11-17T07:31:09.786Z,99400.19
2022-11-17T07:33:37.281Z,99405.19
2022-11-17T07:36:06.320Z,99404.22
2022-11-17T07:38:35.434Z,99399.66
2022-11-17T07:41:03.067Z,99421.47
2022-11-17T07:43:30.059Z,99404.28
2022-11-17T07:45:57.328Z,99419.34
2022-11-17T07:48:24.334Z,99410.94
2022-11-17T07:50:51.749Z,99415.38
2022-11-17T07:53:18.690Z,99421.28
2022-11-17T07:55:45.736Z,99410.50
2022-11-17T07:58:12.588Z,99412.63
2022-11-17T08:00:39.608Z,99412.53
2022-11-17T08:03:06.802Z,99408.41
2022-11-17T08:05:43.243Z,99412.81
2022-11-17T08:08:13.191Z,99411.22
2022-11-17T08:10:40.366Z,99414.06
2022-11-17T08:13:07.772Z,99412.53
2022-11-17T08:15:36.247Z,99406.28
2022-11-17T08:18:03.711Z,99407.56
2022-11-17T08:20:30.648Z,99410.09
2022-11-17T08:22:57.637Z,99413.06
2022-11-17T08:25:27.155Z,99411.63
2022-11-17T08:27:58.357Z,99404.94
2022-11-17T08:30:26.122Z,99412.31
2022-11-17T08:32:54.802Z,99415.88
2022-11-17T08:35:25.136Z,99407.88
2022-11-17T08:37:52.959Z,99407.53
2022-11-17T08:40:20.388Z,99410.25
2022-11-17T08:42:59.167Z,99406.56
2022-11-17T08:45:28.065Z,99410.69
2022-11-17T08:47:56.758Z,99409.59
2022-11-17T08:50:23.727Z,99409.59
2022-11-17T08:52:52.547Z,99406.66
2022-11-17T08:55:19.609Z,99406.28
2022-11-17T08:57:46.666Z,99400.88
2022-11-17T09:00:14.309Z,99394.72
2022-11-17T09:02:42.511Z,99391.09
2022-11-17T09:05:10.211Z,99391.91
2022-11-17T09:07:37.232Z,99399.66
2022-11-17T09:10:06.787Z,99395.09
2022-11-17T09:12:33.764Z,99395.81
2022-11-17T09:15:00.724Z,99397.28
2022-11-17T09:17:27.662Z,99395.25
2022-11-17T09:19:54.609Z,99402.97
2022-11-17T09:22:21.482Z,99401.31
2022-11-17T09:24:48.402Z,99392.13
2022-11-17T09:27:15.435Z,99391.00
2022-11-17T09:29:42.324Z,99395.41
2022-11-17T09:32:09.241Z,99338.16
2022-11-17T09:34:36.331Z,99385.63
2022-11-17T09:37:03.405Z,99378.47
2022-11-17T09:39:30.389Z,99374.94
2022-11-17T09:41:57.682Z,99378.03
2022-11-17T09:44:40.505Z,99375.19
2022-11-17T09:47:07.423Z,99377.03
2022-11-17T09:49:58.341Z,99374.13
2022-11-17T09:52:33.117Z,99379.41
2022-11-17T09:55:17.673Z,99378.44
2022-11-17T09:57:56.650Z,99367.72
2022-11-17T10:00:25.455Z,99370.25
2022-11-17T10:02:54.299Z,99380.66
2022-11-17T10:05:31.048Z,99366.91
2022-11-17T10:08:04.802Z,99358.41
2022-11-17T10:10:36.935Z,99370.09
2022-11-17T10:13:11.485Z,99373.78
2022-11-17T10:15:45.856Z,99374.00
2022-11-17T10:18:14.923Z,99381.88
2022-11-17T10:20:43.579Z,99382.38
2022-11-17T10:23:15.076Z,99356.47
2022-11-17T10:25:45.090Z,99384.94
2022-11-17T10:28:32.993Z,99380.56
2022-11-17T10:31:10.573Z,99377.69
2022-11-17T10:33:46.662Z,99380.34
2022-11-17T10:36:20.102Z,99386.34
2022-11-17T10:38:50.529Z,99390.59
2022-11-17T10:41:39.112Z,99389.69
2022-11-17T10:44:26.438Z,99365.84
2022-11-17T10:47:02.078Z,99383.13
2022-11-17T10:49:34.107Z,99379.72
2022-11-17T10:52:16.773Z,99381.66
2022-11-17T10:54:44.625Z,99375.94
2022-11-17T10:57:21.573Z,99366.75
2022-11-17T10:59:57.073Z,99375.56
2022-11-17T11:02:34.778Z,99379.44
2022-11-17T11:05:09.791Z,99386.44
2022-11-17T11:07:38.101Z,99378.72
2022-11-17T11:10:15.189Z,99391.03
2022-11-17T11:13:02.072Z,99382.00
2022-11-17T11:15:34.326Z,99370.41
2022-11-17T11:18:01.999Z,99354.63
2022-11-17T11:20:55.156Z,99373.94
2022-11-17T11:23:27.773Z,99382.03
2022-11-17T11:26:06.850Z,99387.91
2022-11-17T11:28:49.065Z,99386.53
2022-11-17T11:31:34.716Z,99373.69
2022-11-17T11:34:04.512Z,99381.75
2022-11-17T11:36:44.486Z,99383.66
2022-11-17T11:39:30.094Z,99390.84
2022-11-17T11:41:56.981Z,99381.66
2022-11-17T11:44:45.038Z,99395.81
2022-11-17T11:47:20.833Z,99392.03
2022-11-17T11:50:13.076Z,99386.66
2022-11-17T11:52:46.530Z,99382.34
2022-11-17T11:55:29.224Z,99381.78
2022-11-17T11:58:18.291Z,99382.72
2022-11-17T12:00:46.929Z,99382.53
2022-11-17T12:03:49.240Z,99381.31
2022-11-17T12:07:04.873Z,99372.41
2022-11-17T12:09:42.333Z,99383.56
2022-11-17T12:12:15.820Z,99372.97
2022-11-17T12:15:20.906Z,99387.16
2022-11-17T12:18:11.558Z,99389.41
2022-11-17T12:20:38.425Z,99385.00
2022-11-17T12:23:10.914Z,99386.88
2022-11-17T12:25:50.575Z,99390.91
2022-11-17T12:28:38.467Z,99387.47
2022-11-17T12:31:10.013Z,99393.00
2022-11-17T12:34:00.986Z,99387.00
2022-11-17T12:36:32.112Z,99379.84
2022-11-17T12:39:01.368Z,99381.13
2022-11-17T12:41:48.797Z,99387.25
2022-11-17T12:44:37.532Z,99388.28
2022-11-17T12:47:17.167Z,99395.56
2022-11-17T12:49:59.661Z,99398.22
2022-11-17T12:52:44.993Z,99392.63
2022-11-17T12:55:51.996Z,99391.81
2022-11-17T12:58:25.176Z,99392.53
2022-11-17T13:00:54.884Z,99396.72
2022-11-17T13:03:34.604Z,99396.91
2022-11-17T13:06:33.921Z,99400.72
2022-11-17T13:08:58.502Z,99408.84
2022-11-17T13:11:26.361Z,99399.75
2022-11-17T13:14:13.701Z,99408.09
2022-11-17T13:16:50.981Z,99389.88
2022-11-17T13:19:38.784Z,99411.66
2022-11-17T13:22:11.677Z,99414.81
2022-11-17T13:24:41.166Z,99417.31
2022-11-17T13:27:18.846Z,99414.50
2022-11-17T13:29:45.887Z,99417.41
2022-11-17T13:32:24.765Z,99418.28
2022-11-17T13:34:57.144Z,99418.28
2022-11-17T13:37:27.071Z,99420.59
2022-11-17T13:39:56.114Z,99421.81
2022-11-17T13:42:24.559Z,99419.84
2022-11-17T13:44:54.654Z,99424.75
2022-11-17T13:47:50.770Z,99422.03
2022-11-17T13:50:26.919Z,99424.44
2022-11-17T13:52:55.750Z,99415.91
2022-11-17T13:55:24.179Z,99431.22
2022-11-17T13:57:58.683Z,99427.75
2022-11-17T14:00:26.077Z,99423.75
2022-11-17T14:02:58.470Z,99421.41
2022-11-17T14:05:27.649Z,99426.19
2022-11-17T14:07:57.057Z,99425.44
2022-11-17T14:10:37.088Z,99414.88
2022-11-17T14:13:07.315Z,99430.09
2022-11-17T14:15:37.552Z,99414.59
2022-11-17T14:18:22.843Z,99423.81
2022-11-17T14:21:07.644Z,99418.38
2022-11-17T14:23:35.136Z,99430.56
2022-11-17T14:26:02.005Z,99423.28
2022-11-17T14:28:29.052Z,99423.06
2022-11-17T14:30:57.749Z,99425.44
2022-11-17T14:33:24.847Z,99422.19
2022-11-17T14:35:55.342Z,99407.28
2022-11-17T14:38:23.132Z,99420.50
2022-11-17T14:40:51.814Z,99427.41
2022-11-17T14:43:22.519Z,99431.47
2022-11-17T14:45:50.571Z,99424.28
2022-11-17T14:48:19.290Z,99433.06
2022-11-17T14:50:47.619Z,99427.88
2022-11-17T14:53:14.861Z,99422.44
2022-11-17T14:55:42.217Z,99432.13
2022-11-17T14:58:10.262Z,99426.34
2022-11-17T15:00:37.916Z,99425.50
2022-11-17T15:03:05.238Z,99431.16
2022-11-17T15:05:32.558Z,99430.47
2022-11-17T15:07:59.890Z,99424.59
2022-11-17T15:10:26.890Z,99429.81
2022-11-17T15:12:53.921Z,99417.75
2022-11-17T15:15:20.981Z,99422.53
2022-11-17T15:17:48.005Z,99433.94
2022-11-17T15:20:14.980Z,99436.47
2022-11-17T15:22:42.046Z,99432.28
2022-11-17T15:25:09.420Z,99429.88
2022-11-17T15:27:36.356Z,99428.53
2022-11-17T15:30:04.721Z,99432.25
2022-11-17T15:32:32.096Z,99425.69
2022-11-17T15:34:59.008Z,99429.78
2022-11-17T15:37:26.150Z,99428.78
2022-11-17T15:39:53.832Z,99422.84
2022-11-17T15:42:20.782Z,99428.84
2022-11-17T15:44:47.947Z,99424.72
2022-11-17T15:47:14.885Z,99424.03
2022-11-17T15:49:41.797Z,99428.16
2022-11-17T15:52:08.786Z,99420.38
2022-11-17T15:54:35.820Z,99411.53
2022-11-17T15:57:02.981Z,99423.22
2022-11-17T15:59:30.069Z,99423.69
2022-11-17T16:01:56.988Z,99426.91
2022-11-17T16:04:23.920Z,99424.81
2022-11-17T16:06:51.009Z,99425.34
2022-11-17T16:09:18.333Z,99423.00
2022-11-17T16:11:45.568Z,99430.13
2022-11-17T16:14:12.880Z,99374.59
2022-11-17T16:16:39.840Z,99426.28
2022-11-17T16:19:07.391Z,99428.81
2022-11-17T16:21:34.428Z,99419.63
2022-11-17T16:24:02.429Z,99416.78
2022-11-17T16:26:30.341Z,99424.47
2022-11-17T16:29:02.935Z,99415.38
2022-11-17T16:31:32.322Z,99424.00
2022-11-17T16:34:05.227Z,99419.28
2022-11-17T16:36:38.338Z,99421.56
2022-11-17T16:39:07.842Z,99410.34
2022-11-17T16:41:38.136Z,99414.28
2022-11-17T16:44:15.782Z,99406.31
2022-11-17T16:46:47.708Z,99394.34
2022-11-17T16:49:17.368Z,99412.34
2022-11-17T16:51:49.613Z,99410.31
2022-11-17T16:54:18.109Z,99411.84
2022-11-17T16:56:45.422Z,99394.63
2022-11-17T16:59:13.129Z,99402.03
2022-11-17T17:01:40.118Z,99404.72
2022-11-17T17:04:09.214Z,99404.16
2022-11-17T17:06:39.609Z,99392.31
2022-11-17T17:09:07.893Z,99407.03
2022-11-17T17:11:36.061Z,99398.22
2022-11-17T17:14:04.917Z,99406.50
2022-11-17T17:16:33.760Z,99407.31
2022-11-17T17:19:04.162Z,99402.34
2022-11-17T17:21:31.836Z,99398.22
2022-11-17T17:23:59.110Z,99401.41
2022-11-17T17:26:28.574Z,99392.53
2022-11-17T17:28:57.955Z,99394.50
2022-11-17T17:31:26.605Z,99399.03
2022-11-17T17:33:54.782Z,99370.69
2022-11-17T17:36:24.564Z,99398.75
2022-11-17T17:38:56.111Z,99398.72
2022-11-17T17:41:29.324Z,99397.50
2022-11-17T17:44:05.050Z,99401.66
2022-11-17T17:46:38.366Z,99381.53
2022-11-17T17:49:06.363Z,99392.38
2022-11-17T17:51:40.310Z,99383.66
2022-11-17T17:54:08.035Z,99389.69
2022-11-17T17:56:35.115Z,99388.94
2022-11-17T17:59:02.146Z,99388.25
2022-11-17T18:01:31.217Z,99397.50
2022-11-17T18:04:05.841Z,99373.06
2022-11-17T18:06:41.427Z,99369.81
2022-11-17T18:09:14.702Z,99393.00
2022-11-17T18:11:50.118Z,99390.47
2022-11-17T18:14:21.195Z,99390.47
2022-11-17T18:16:48.187Z,99384.28
2022-11-17T18:19:16.446Z,99400.75
2022-11-17T18:21:44.248Z,99391.69
2022-11-17T18:24:12.752Z,99386.44
2022-11-17T18:26:41.134Z,99373.66
2022-11-17T18:29:15.025Z,99390.38
2022-11-17T18:31:42.876Z,99386.22
2022-11-17T18:34:27.923Z,99400.31
2022-11-17T18:36:55.865Z,99386.09
2022-11-17T18:39:23.497Z,99386.84
2022-11-17T18:41:50.546Z,99393.34
2022-11-17T18:44:21.545Z,99388.56
2022-11-17T18:46:48.557Z,99383.47
2022-11-17T18:49:16.001Z,99393.56
2022-11-17T18:51:43.244Z,99381.31
2022-11-17T18:54:10.998Z,99394.59
2022-11-17T18:56:38.747Z,99389.75
2022-11-17T18:59:13.051Z,99389.59
2022-11-17T19:01:42.028Z,99402.41
2022-11-17T19:04:11.591Z,99378.41
2022-11-17T19:06:38.474Z,99395.28
2022-11-17T19:09:06.179Z,99380.97
2022-11-17T19:11:34.573Z,99385.09
2022-11-17T19:14:02.501Z,99379.94
2022-11-17T19:16:29.704Z,99367.06
2022-11-17T19:18:56.861Z,99373.31
2022-11-17T19:21:28.009Z,99361.69
2022-11-17T19:23:57.988Z,99375.09
2022-11-17T19:26:30.629Z,99372.97
2022-11-17T19:29:00.051Z,99360.38
2022-11-17T19:31:28.359Z,99374.75
2022-11-17T19:33:56.261Z,99367.47
2022-11-17T19:36:27.563Z,99373.16
2022-11-17T19:38:56.847Z,99373.50
2022-11-17T19:41:24.969Z,99364.84
2022-11-17T19:44:01.058Z,99355.81
2022-11-17T19:46:29.059Z,99355.25
2022-11-17T19:48:57.253Z,99360.50
2022-11-17T19:51:27.002Z,99356.78
2022-11-17T19:53:55.959Z,99358.56
2022-11-17T19:56:24.333Z,99367.91
2022-11-17T19:58:52.681Z,99364.78
2022-11-17T20:01:22.710Z,99363.56
2022-11-17T20:03:50.550Z,99336.84
2022-11-17T20:06:20.750Z,99362.72
2022-11-17T20:08:48.510Z,99351.78
2022-11-17T20:11:16.954Z,99351.53
2022-11-17T20:13:44.564Z,99339.06
2022-11-17T20:16:24.661Z,99352.72
2022-11-17T20:18:57.076Z,99348.47
2022-11-17T20:21:25.785Z,99341.84
2022-11-17T20:23:53.242Z,99355.06
2022-11-17T20:26:25.747Z,99339.31
2022-11-17T20:28:53.927Z,99351.25
2022-11-17T20:31:32.247Z,99344.47
2022-11-17T20:34:00.916Z,99329.50
2022-11-17T20:36:30.152Z,99312.63
2022-11-17T20:39:00.266Z,99349.72
2022-11-17T20:41:28.406Z,99346.25
2022-11-17T20:43:57.049Z,99336.16
2022-11-17T20:46:25.043Z,99341.88
2022-11-17T20:48:52.556Z,99342.50
2022-11-17T20:51:24.829Z,99342.19
2022-11-17T20:53:52.101Z,99339.63
2022-11-17T20:56:19.975Z,99344.19
2022-11-17T20:58:47.080Z,99329.63
2022-11-17T21:01:18.813Z,99319.47
2022-11-17T21:03:46.145Z,99324.31
2022-11-17T21:06:14.270Z,99327.47
2022-11-17T21:08:42.534Z,99315.56
2022-11-17T21:11:36.294Z,99316.91
2022-11-17T21:14:08.224Z,99313.09
2022-11-17T21:16:37.618Z,99319.66
2022-11-17T21:19:05.053Z,99319.06
2022-11-17T21:21:32.051Z,99316.63
2022-11-17T21:24:00.021Z,99302.44
2022-11-17T21:26:28.004Z,99315.69
2022-11-17T21:28:55.435Z,99313.16
2022-11-17T21:31:24.952Z,99297.31
2022-11-17T21:33:58.099Z,99299.75
2022-11-17T21:36:27.051Z,99313.84
2022-11-17T21:38:55.130Z,99308.66
2022-11-17T21:41:24.446Z,99302.53
2022-11-17T21:43:54.068Z,99301.91
2022-11-17T21:46:23.405Z,99310.88
2022-11-17T21:48:51.518Z,99312.28
2022-11-17T21:51:34.650Z,99310.66
2022-11-17T21:54:03.867Z,99306.19
2022-11-17T21:56:32.226Z,99248.03
2022-11-17T21:59:01.539Z,99303.00
2022-11-17T22:01:29.431Z,99299.97
2022-11-17T22:03:57.026Z,99294.41
2022-11-17T22:06:25.180Z,99289.31
2022-11-17T22:08:54.108Z,99283.34
2022-11-17T22:11:36.719Z,99292.97
2022-11-17T22:14:05.165Z,99291.06
2022-11-17T22:16:32.694Z,99295.41
2022-11-17T22:18:59.654Z,99293.47
2022-11-17T22:21:26.555Z,99284.50
2022-11-17T22:23:53.458Z,99290.09
2022-11-17T22:26:20.738Z,99287.25
2022-11-17T22:28:55.036Z,99288.50
2022-11-17T22:31:22.771Z,99284.28
2022-11-17T22:33:50.458Z,99304.75
2022-11-17T22:36:18.264Z,99280.91
2022-11-17T22:38:48.970Z,99301.91
2022-11-17T22:41:15.835Z,99293.03
2022-11-17T22:43:42.660Z,99292.22
2022-11-17T22:46:11.678Z,99303.53
2022-11-17T22:48:38.876Z,99298.44
2022-11-17T22:51:06.079Z,99300.31
2022-11-17T22:53:34.009Z,99293.31
2022-11-17T22:56:02.911Z,99297.31
2022-11-17T22:58:30.143Z,99294.63
2022-11-17T23:00:57.140Z,99297.53
2022-11-17T23:03:24.325Z,99293.06
2022-11-17T23:05:51.363Z,99289.00
2022-11-17T23:08:18.319Z,99286.78
2022-11-17T23:10:45.293Z,99290.75
2022-11-17T23:13:12.218Z,99282.81
2022-11-17T23:15:39.528Z,99287.19
2022-11-17T23:18:06.541Z,99284.09
2022-11-17T23:20:33.512Z,99280.75
2022-11-17T23:23:00.439Z,99284.34
2022-11-17T23:25:27.318Z,99288.50
2022-11-17T23:27:54.301Z,99280.19
2022-11-17T23:30:21.209Z,99242.44
2022-11-17T23:32:48.128Z,99266.81
2022-11-17T23:35:15.118Z,99272.53
2022-11-17T23:37:42.006Z,99259.06
2022-11-17T23:40:09.818Z,99254.91
2022-11-17T23:42:42.710Z,99251.88
2022-11-17T23:45:12.096Z,99247.03
2022-11-17T23:47:39.490Z,99246.56
2022-11-17T23:50:06.943Z,99235.19
2022-11-17T23:52:33.966Z,99235.47
2022-11-17T23:55:01.032Z,99239.25
2022-11-17T23:57:30.098Z,99223.78
2022-11-17T23:59:57.048Z,99190.69
